Time;durP1;ratioP1;P1;durP2;ratioP2;P2;SDS_P1;SDS_P2;PMS_P1;PMS_P2;Temp;Humidity;BMP_temperature;BMP_pressure;BME280_temperature;BME280_humidity;BME280_pressure;Samples;Min_cycle;Max_cycle;Signal;HPM_P1;HPM_P2
2021/12/17 00:00:46;;;;;;;21.50;18.33;;;7.30;99.90;;;;;;4976315;28;20198;-26
2021/12/17 00:03:22;;;;;;;20.83;17.83;;;7.20;99.90;;;;;;4970248;28;20210;-26
2021/12/17 00:06:05;;;;;;;20.97;17.70;;;7.20;99.90;;;;;;4986600;28;20589;-26
2021/12/17 00:08:33;;;;;;;23.20;18.90;;;7.20;99.90;;;;;;4988913;28;20244;-26
2021/12/17 00:11:01;;;;;;;20.70;17.57;;;7.20;99.90;;;;;;4974567;28;20217;-26
2021/12/17 00:13:32;;;;;;;23.47;18.60;;;7.10;99.90;;;;;;4980014;28;20301;-26
2021/12/17 00:15:59;;;;;;;21.57;18.53;;;7.10;99.90;;;;;;4966074;28;20194;-26
2021/12/17 00:18:44;;;;;;;21.10;17.77;;;7.10;99.90;;;;;;4983615;28;20207;-26
2021/12/17 00:48:51;;;;;;;24.70;18.73;;;6.80;99.90;;;;;;4969473;28;20213;-26
2021/12/17 00:54:01;;;;;;;28.17;19.80;;;6.80;99.90;;;;;;4969859;28;20229;-26
2021/12/17 00:56:33;;;;;;;30.97;21.00;;;6.80;99.90;;;;;;4968198;28;20211;-26
2021/12/17 00:59:01;;;;;;;27.77;20.97;;;6.80;99.90;;;;;;4984515;28;20681;-26
2021/12/17 01:01:28;;;;;;;30.60;21.10;;;6.70;99.90;;;;;;4973950;28;20202;-26
2021/12/17 01:03:56;;;;;;;28.43;20.50;;;6.70;99.90;;;;;;4980075;28;20213;-26
2021/12/17 01:06:24;;;;;;;26.17;19.63;;;6.70;99.90;;;;;;4970328;28;20681;-25
2021/12/17 01:08:52;;;;;;;26.50;19.10;;;6.70;99.90;;;;;;4975783;28;20578;-26
2021/12/17 01:11:22;;;;;;;25.37;19.57;;;6.70;99.90;;;;;;4975949;28;20198;-26
2021/12/17 01:13:50;;;;;;;24.07;19.30;;;6.70;99.90;;;;;;4965739;28;20326;-26
2021/12/17 01:16:18;;;;;;;23.57;18.50;;;6.60;99.90;;;;;;4973012;28;20979;-26
2021/12/17 01:18:58;;;;;;;25.13;19.00;;;6.60;99.90;;;;;;4969035;28;20349;-25
2021/12/17 01:21:39;;;;;;;23.50;18.83;;;6.60;99.90;;;;;;4971442;28;20205;-25
2021/12/17 01:40:55;;;;;;;22.53;18.57;;;6.50;99.90;;;;;;4974775;28;20230;-25
2021/12/17 01:43:14;;;;;;;21.53;18.10;;;6.50;99.90;;;;;;4986067;28;20218;-25
2021/12/17 01:45:43;;;;;;;22.90;18.70;;;6.50;99.90;;;;;;4974719;28;20319;-25
2021/12/17 01:48:18;;;;;;;21.23;17.40;;;6.40;99.90;;;;;;4973863;28;20207;-25
2021/12/17 01:59:26;;;;;;;20.37;17.30;;;6.30;99.90;;;;;;4982589;28;20323;-25
2021/12/17 02:02:01;;;;;;;22.37;17.33;;;6.30;99.90;;;;;;4973674;28;20228;-25
2021/12/17 02:04:33;;;;;;;22.73;17.87;;;6.30;99.90;;;;;;4987697;28;20308;-25
2021/12/17 02:07:02;;;;;;;21.67;17.00;;;6.30;99.90;;;;;;4979234;28;20202;-25
2021/12/17 02:21:45;;;;;;;23.70;17.50;;;6.30;99.90;;;;;;4983826;28;20645;-25
2021/12/17 02:30:07;;;;;;;24.73;17.63;;;6.30;99.90;;;;;;4983799;28;20314;-25
2021/12/17 02:32:18;;;;;;;28.23;18.83;;;6.30;99.90;;;;;;4972381;28;20202;-25
2021/12/17 02:37:24;;;;;;;31.00;20.37;;;6.30;99.90;;;;;;4968442;28;20586;-25
2021/12/17 02:45:32;;;;;;;31.33;19.83;;;6.30;99.90;;;;;;4972064;28;20579;-25
2021/12/17 02:48:11;;;;;;;29.67;20.33;;;6.30;99.90;;;;;;4989496;28;20302;-25
2021/12/17 02:50:42;;;;;;;35.90;21.63;;;6.40;99.90;;;;;;4982986;28;20313;-25
2021/12/17 02:53:10;;;;;;;33.97;21.20;;;6.40;99.90;;;;;;4980995;28;20246;-25
2021/12/17 02:55:40;;;;;;;35.07;20.97;;;6.40;99.90;;;;;;4968045;28;20757;-25
2021/12/17 02:58:08;;;;;;;34.03;20.27;;;6.40;99.90;;;;;;4975042;28;20210;-25
2021/12/17 03:00:41;;;;;;;35.57;22.30;;;6.40;99.90;;;;;;4974609;28;20273;-25
2021/12/17 03:03:13;;;;;;;39.60;22.10;;;6.40;99.90;;;;;;4981779;28;20545;-25
2021/12/17 03:05:42;;;;;;;36.30;20.87;;;6.40;99.90;;;;;;4982997;28;20748;-25
2021/12/17 03:08:14;;;;;;;38.53;23.27;;;6.40;99.90;;;;;;4980696;28;20202;-25
2021/12/17 03:10:47;;;;;;;37.07;21.33;;;6.40;99.90;;;;;;4979230;28;20763;-25
2021/12/17 03:13:17;;;;;;;37.93;21.40;;;6.40;99.90;;;;;;4979542;28;20273;-25
2021/12/17 03:18:49;;;;;;;32.30;20.77;;;6.50;99.90;;;;;;4974600;28;20218;-25
2021/12/17 03:23:50;;;;;;;33.80;20.37;;;6.50;99.90;;;;;;4982879;28;20233;-25
2021/12/17 03:26:26;;;;;;;32.17;21.20;;;6.50;99.90;;;;;;4982570;28;20573;-25
2021/12/17 03:28:56;;;;;;;31.40;21.50;;;6.60;99.90;;;;;;4986288;28;20218;-25
2021/12/17 03:31:25;;;;;;;33.47;20.80;;;6.60;99.90;;;;;;4964755;28;20215;-25
2021/12/17 03:34:12;;;;;;;34.17;21.03;;;6.60;99.90;;;;;;4971217;28;20222;-25
2021/12/17 03:36:39;;;;;;;35.27;21.73;;;6.60;99.90;;;;;;4975108;28;20212;-25
2021/12/17 03:39:07;;;;;;;33.13;20.70;;;6.60;99.90;;;;;;4979817;28;20265;-25
2021/12/17 03:41:39;;;;;;;32.50;20.43;;;6.60;99.90;;;;;;4973131;28;20683;-25
2021/12/17 03:44:08;;;;;;;29.07;20.37;;;6.60;99.90;;;;;;4976504;28;20206;-25
2021/12/17 03:46:37;;;;;;;28.80;20.30;;;6.70;99.90;;;;;;4976972;28;20222;-25
2021/12/17 03:49:09;;;;;;;30.10;20.00;;;6.70;99.90;;;;;;4973944;28;20202;-25
2021/12/17 03:51:47;;;;;;;31.30;21.10;;;6.70;99.90;;;;;;4975345;28;20237;-25
2021/12/17 03:54:14;;;;;;;30.00;19.50;;;6.70;99.90;;;;;;4985966;28;20236;-25
2021/12/17 03:56:44;;;;;;;31.90;19.83;;;6.70;99.90;;;;;;4971941;28;20201;-25
2021/12/17 03:59:11;;;;;;;27.93;19.70;;;6.80;99.90;;;;;;4971054;28;20210;-25
2021/12/17 04:01:40;;;;;;;32.67;20.40;;;6.80;99.90;;;;;;4975790;28;20198;-25
2021/12/17 04:04:07;;;;;;;31.57;21.13;;;6.80;99.90;;;;;;4972675;28;20712;-25
2021/12/17 04:06:35;;;;;;;32.33;19.67;;;6.80;99.90;;;;;;4971304;28;20211;-25
2021/12/17 04:09:04;;;;;;;28.17;19.67;;;6.80;99.90;;;;;;4980415;28;20647;-25
2021/12/17 04:11:32;;;;;;;34.47;20.70;;;6.90;99.90;;;;;;4978381;28;20203;-25
2021/12/17 04:14:02;;;;;;;30.50;19.60;;;6.90;99.90;;;;;;4980975;28;20784;-25
2021/12/17 04:16:32;;;;;;;35.20;20.97;;;6.90;99.90;;;;;;4981814;28;20419;-25
2021/12/17 04:18:59;;;;;;;29.23;19.70;;;6.90;99.90;;;;;;4973716;28;20544;-25
2021/12/17 04:21:27;;;;;;;32.73;20.70;;;6.90;99.90;;;;;;4969312;28;20229;-25
2021/12/17 04:23:54;;;;;;;35.40;20.83;;;6.90;99.90;;;;;;4982592;28;20209;-25
2021/12/17 04:26:24;;;;;;;27.57;19.00;;;6.90;99.90;;;;;;4976101;28;20234;-25
2021/12/17 04:28:54;;;;;;;34.87;21.53;;;7.00;99.90;;;;;;4954835;28;20203;-25
2021/12/17 04:31:25;;;;;;;33.40;20.40;;;7.00;99.90;;;;;;4970251;28;20210;-25
2021/12/17 04:33:53;;;;;;;28.63;20.30;;;7.00;99.90;;;;;;4967341;28;20317;-25
2021/12/17 04:36:26;;;;;;;27.27;20.13;;;7.00;99.90;;;;;;4976378;28;20706;-25
2021/12/17 04:38:57;;;;;;;29.57;20.93;;;7.00;99.90;;;;;;4969811;28;20549;-25
2021/12/17 04:44:07;;;;;;;31.20;19.87;;;7.00;99.90;;;;;;4965968;28;20207;-25
2021/12/17 04:46:44;;;;;;;29.50;20.90;;;7.00;99.90;;;;;;4984339;28;20254;-25
2021/12/17 04:57:38;;;;;;;40.30;19.13;;;7.10;99.90;;;;;;4964827;28;20218;-25
2021/12/17 05:00:34;;;;;;;30.03;18.83;;;7.10;99.90;;;;;;4963665;28;20281;-25
2021/12/17 05:03:04;;;;;;;28.53;17.20;;;7.10;99.90;;;;;;4971742;28;20217;-25
2021/12/17 05:05:33;;;;;;;38.70;18.70;;;7.00;99.90;;;;;;4973747;28;20228;-25
2021/12/17 05:08:04;;;;;;;21.93;16.73;;;7.00;99.90;;;;;;4970340;28;20202;-25
2021/12/17 05:11:15;;;;;;;22.07;17.30;;;7.00;99.90;;;;;;4974346;28;20206;-25
2021/12/17 05:19:14;;;;;;;20.23;16.67;;;7.00;99.90;;;;;;4970489;28;20203;-25
2021/12/17 05:21:42;;;;;;;23.13;17.23;;;7.00;99.90;;;;;;4975474;28;20210;-25
2021/12/17 05:24:09;;;;;;;21.10;16.43;;;6.90;99.90;;;;;;4973076;28;20210;-25
2021/12/17 05:26:36;;;;;;;25.20;18.20;;;6.90;99.90;;;;;;4978096;28;20302;-24
2021/12/17 05:29:03;;;;;;;24.23;18.23;;;6.90;99.90;;;;;;4980292;28;20264;-25
2021/12/17 05:31:31;;;;;;;31.67;19.00;;;6.90;99.90;;;;;;4969417;28;20218;-25
2021/12/17 05:33:59;;;;;;;25.13;20.23;;;6.90;99.90;;;;;;4973055;28;20229;-25
2021/12/17 05:36:26;;;;;;;29.37;19.70;;;6.90;99.90;;;;;;4972378;28;20629;-25
2021/12/17 05:38:53;;;;;;;23.27;18.30;;;6.90;99.90;;;;;;4970491;28;20230;-25
2021/12/17 05:41:21;;;;;;;22.47;18.40;;;6.90;99.90;;;;;;4973019;28;20210;-25
2021/12/17 05:43:56;;;;;;;23.70;17.53;;;6.80;99.90;;;;;;4972537;28;20237;-25
2021/12/17 05:49:12;;;;;;;20.93;16.97;;;6.80;99.90;;;;;;4980666;28;20213;-25
2021/12/17 05:51:40;;;;;;;23.13;17.10;;;6.80;99.90;;;;;;4975900;28;20778;-25
2021/12/17 05:54:07;;;;;;;30.03;15.90;;;6.80;99.90;;;;;;4973884;28;20219;-25
2021/12/17 05:56:34;;;;;;;22.60;14.93;;;6.80;99.90;;;;;;4989461;28;20237;-25
2021/12/17 05:59:01;;;;;;;18.40;15.70;;;6.80;99.90;;;;;;4970408;28;20313;-25
2021/12/17 06:01:29;;;;;;;22.13;15.90;;;6.80;99.90;;;;;;4980378;28;20280;-25
2021/12/17 06:03:56;;;;;;;19.10;15.40;;;6.80;99.90;;;;;;4973155;28;20210;-25
2021/12/17 06:06:27;;;;;;;19.37;15.00;;;6.80;99.90;;;;;;4979148;28;20586;-25
2021/12/17 06:08:55;;;;;;;19.90;14.97;;;6.80;99.90;;;;;;4975490;28;20653;-25
2021/12/17 06:11:23;;;;;;;19.20;14.70;;;6.80;99.90;;;;;;4971992;28;20211;-25
2021/12/17 06:13:52;;;;;;;16.83;15.03;;;6.80;99.90;;;;;;4976398;28;20233;-25
2021/12/17 06:16:20;;;;;;;19.70;15.80;;;6.80;99.90;;;;;;4977524;28;20740;-25
2021/12/17 06:18:49;;;;;;;23.03;16.47;;;6.80;99.90;;;;;;4975660;28;20206;-25
2021/12/17 06:21:19;;;;;;;22.57;15.67;;;6.80;99.90;;;;;;4978265;28;20671;-25
2021/12/17 06:23:47;;;;;;;22.23;15.70;;;6.80;99.90;;;;;;4973131;28;20636;-25
2021/12/17 06:26:16;;;;;;;19.03;15.73;;;6.80;99.90;;;;;;4976174;28;20206;-25
2021/12/17 06:28:45;;;;;;;20.63;14.53;;;6.80;99.90;;;;;;4983592;28;20209;-25
2021/12/17 06:31:12;;;;;;;27.60;16.80;;;6.80;99.90;;;;;;4978099;28;20219;-25
2021/12/17 06:33:39;;;;;;;28.67;16.53;;;6.90;99.90;;;;;;4981233;28;20225;-25
2021/12/17 06:36:06;;;;;;;26.20;18.00;;;6.90;99.90;;;;;;4985881;28;20664;-25
2021/12/17 06:38:38;;;;;;;31.23;17.17;;;6.90;99.90;;;;;;4976357;28;20217;-25
2021/12/17 06:41:05;;;;;;;31.47;16.63;;;6.90;99.90;;;;;;4977852;28;20678;-25
2021/12/17 06:43:38;;;;;;;30.17;18.07;;;6.90;99.90;;;;;;4970692;28;20646;-25
2021/12/17 06:48:46;;;;;;;37.40;19.07;;;6.90;99.90;;;;;;4967499;28;20230;-25
2021/12/17 07:09:04;;;;;;;38.67;20.73;;;7.00;99.90;;;;;;4980536;28;20198;-25
2021/12/17 07:10:48;;;;;;;37.40;20.40;;;7.00;99.90;;;;;;4980173;28;20210;-25
2021/12/17 07:19:29;;;;;;;35.83;19.97;;;7.10;99.90;;;;;;4973307;28;20202;-25
2021/12/17 07:34:50;;;;;;;39.73;21.23;;;7.20;99.90;;;;;;4970920;28;20731;-26
2021/12/17 07:39:45;;;;;;;35.23;21.17;;;7.30;99.90;;;;;;4972474;28;20195;-25
2021/12/17 07:42:14;;;;;;;37.00;20.23;;;7.30;99.90;;;;;;4975093;28;20194;-26
2021/12/17 07:44:44;;;;;;;34.70;20.60;;;7.30;99.90;;;;;;4985528;28;20202;-26
2021/12/17 07:47:11;;;;;;;32.80;20.20;;;7.30;99.90;;;;;;4997694;28;20574;-26
2021/12/17 07:49:38;;;;;;;34.67;21.47;;;7.30;99.90;;;;;;4989386;28;20322;-26
2021/12/17 07:52:06;;;;;;;38.30;21.67;;;7.30;99.90;;;;;;4979765;28;20727;-26
2021/12/17 07:54:33;;;;;;;36.10;22.53;;;7.30;99.90;;;;;;4987766;28;20244;-25
2021/12/17 07:57:00;;;;;;;36.47;20.93;;;7.30;99.90;;;;;;4974748;28;20221;-26
2021/12/17 07:59:27;;;;;;;39.40;21.53;;;7.30;99.90;;;;;;4978875;28;20749;-25
2021/12/17 08:01:54;;;;;;;36.63;21.80;;;7.30;99.90;;;;;;4972960;28;20198;-26
2021/12/17 08:04:23;;;;;;;34.60;21.10;;;7.40;99.90;;;;;;4978583;28;20273;-26
2021/12/17 08:06:52;;;;;;;36.17;21.47;;;7.40;99.90;;;;;;4977940;28;20226;-26
2021/12/17 08:09:20;;;;;;;39.10;21.17;;;7.40;99.90;;;;;;4976096;28;20780;-26
2021/12/17 08:11:54;;;;;;;35.87;21.47;;;7.40;99.90;;;;;;4978640;28;20298;-26
2021/12/17 08:14:27;;;;;;;46.73;22.37;;;7.40;99.90;;;;;;4978373;28;20222;-26
2021/12/17 08:17:14;;;;;;;38.97;21.33;;;7.40;99.90;;;;;;4972048;28;20209;-26
2021/12/17 08:25:15;;;;;;;37.43;22.10;;;7.40;99.90;;;;;;4968496;28;20301;-26
2021/12/17 08:28:02;;;;;;;43.37;24.00;;;7.40;99.90;;;;;;4970134;28;20681;-25
2021/12/17 08:30:39;;;;;;;46.07;23.37;;;7.40;99.90;;;;;;4988033;28;20210;-26
2021/12/17 08:33:09;;;;;;;48.77;24.17;;;7.40;99.90;;;;;;4985089;28;20237;-26
2021/12/17 08:35:39;;;;;;;54.97;24.80;;;7.50;99.90;;;;;;4974549;28;21461;-26
2021/12/17 08:38:10;;;;;;;51.87;25.23;;;7.50;99.90;;;;;;4981065;28;20706;-25
2021/12/17 08:40:41;;;;;;;57.63;26.47;;;7.50;99.90;;;;;;4967464;28;20207;-26
2021/12/17 08:43:08;;;;;;;51.07;24.60;;;7.50;99.90;;;;;;4981363;28;20222;-26
2021/12/17 08:45:35;;;;;;;55.07;25.60;;;7.50;99.90;;;;;;4988430;28;20760;-25
2021/12/17 08:48:03;;;;;;;62.27;26.97;;;7.50;99.90;;;;;;4985511;28;20199;-24
2021/12/17 08:50:30;;;;;;;53.33;25.07;;;7.60;99.90;;;;;;4969572;28;20305;-24
2021/12/17 08:53:00;;;;;;;56.37;26.77;;;7.60;99.90;;;;;;4968941;28;20716;-24
2021/12/17 08:55:31;;;;;;;62.63;27.13;;;7.60;99.90;;;;;;4987302;28;20233;-25
2021/12/17 08:57:58;;;;;;;59.37;26.60;;;7.60;99.90;;;;;;4986424;28;20276;-25
2021/12/17 09:00:26;;;;;;;58.97;27.63;;;7.60;99.90;;;;;;4984468;28;20559;-25
2021/12/17 09:02:59;;;;;;;62.77;27.53;;;7.60;99.90;;;;;;4973704;28;20669;-24
2021/12/17 09:05:26;;;;;;;58.40;27.00;;;7.60;99.90;;;;;;4972820;28;20226;-24
2021/12/17 09:07:54;;;;;;;59.20;27.83;;;7.70;99.90;;;;;;4977372;28;20219;-26
2021/12/17 09:10:27;;;;;;;60.73;27.17;;;7.70;99.90;;;;;;4968581;28;20222;-25
2021/12/17 09:12:55;;;;;;;69.27;29.37;;;7.70;99.90;;;;;;4973311;28;20202;-24
2021/12/17 09:15:26;;;;;;;67.57;27.80;;;7.70;99.90;;;;;;4986267;28;20222;-24
2021/12/17 09:17:55;;;;;;;60.67;28.40;;;7.70;99.90;;;;;;4977632;28;20241;-24
2021/12/17 09:20:23;;;;;;;61.73;29.27;;;7.80;99.90;;;;;;4974390;28;20206;-25
2021/12/17 09:22:52;;;;;;;58.80;27.23;;;7.80;99.90;;;;;;4981564;28;20232;-25
2021/12/17 09:25:20;;;;;;;55.50;27.63;;;7.80;99.90;;;;;;4969826;28;20230;-24
2021/12/17 09:27:47;;;;;;;65.07;28.17;;;7.80;99.90;;;;;;4982013;28;20373;-25
2021/12/17 09:30:17;;;;;;;63.97;28.50;;;7.80;99.90;;;;;;4971758;28;20207;-24
2021/12/17 09:32:45;;;;;;;61.40;28.07;;;7.80;99.90;;;;;;4980209;28;20214;-24
2021/12/17 09:35:15;;;;;;;61.07;28.80;;;7.90;99.90;;;;;;4982490;28;20766;-24
2021/12/17 09:37:42;;;;;;;66.63;29.73;;;7.90;99.90;;;;;;4988297;28;20269;-24
2021/12/17 09:40:11;;;;;;;65.93;29.40;;;7.90;99.90;;;;;;4977487;28;20281;-25
2021/12/17 09:42:41;;;;;;;63.90;29.50;;;7.90;99.90;;;;;;4974565;28;20411;-25
2021/12/17 09:45:16;;;;;;;67.73;29.40;;;7.90;99.90;;;;;;4974362;28;20674;-25
2021/12/17 09:47:45;;;;;;;66.47;29.53;;;8.00;99.90;;;;;;4986996;28;20218;-24
2021/12/17 09:50:19;;;;;;;66.60;30.43;;;8.00;99.90;;;;;;4990035;28;20218;-25
2021/12/17 09:52:46;;;;;;;62.97;29.57;;;8.00;99.90;;;;;;4969788;28;20242;-24
2021/12/17 09:55:14;;;;;;;69.60;29.47;;;8.00;99.90;;;;;;4975635;28;20235;-26
2021/12/17 09:57:41;;;;;;;69.57;30.37;;;8.10;99.90;;;;;;4981653;28;20199;-26
2021/12/17 10:00:24;;;;;;;71.83;30.30;;;8.10;99.90;;;;;;4968488;28;20209;-26
2021/12/17 10:02:58;;;;;;;73.17;30.83;;;8.10;99.90;;;;;;4968680;28;20214;-26
2021/12/17 10:05:30;;;;;;;71.27;30.37;;;8.10;99.90;;;;;;4969828;28;20211;-26
2021/12/17 10:08:20;;;;;;;76.20;30.67;;;8.10;99.90;;;;;;4968927;28;20218;-26
2021/12/17 10:10:59;;;;;;;71.53;30.17;;;8.10;99.90;;;;;;4967938;28;20298;-26
2021/12/17 10:13:35;;;;;;;68.83;31.37;;;8.20;99.90;;;;;;4976818;28;20820;-25
2021/12/17 10:16:06;;;;;;;74.83;32.30;;;8.20;99.90;;;;;;4968632;28;20234;-26
2021/12/17 10:18:47;;;;;;;75.97;32.10;;;8.20;99.90;;;;;;4967576;28;20258;-25
2021/12/17 10:21:20;;;;;;;72.00;31.37;;;8.20;99.90;;;;;;4973859;28;20225;-25
2021/12/17 10:23:49;;;;;;;70.83;32.27;;;8.20;99.90;;;;;;4982722;28;20581;-25
2021/12/17 10:26:21;;;;;;;67.20;31.47;;;8.20;99.90;;;;;;4968242;28;20577;-26
2021/12/17 10:28:56;;;;;;;69.17;31.13;;;8.30;99.90;;;;;;4968440;28;20217;-26
2021/12/17 10:31:27;;;;;;;76.30;32.60;;;8.30;99.90;;;;;;4971681;28;20230;-26
2021/12/17 10:34:01;;;;;;;74.33;32.33;;;8.30;99.90;;;;;;4982762;28;20542;-25
2021/12/17 10:36:32;;;;;;;74.03;31.97;;;8.30;99.90;;;;;;4989681;28;20233;-26
2021/12/17 10:39:30;;;;;;;73.93;30.73;;;8.40;99.90;;;;;;4990427;28;20257;-26
2021/12/17 10:41:59;;;;;;;75.47;32.67;;;8.40;99.90;;;;;;4977443;28;20265;-26
2021/12/17 10:44:27;;;;;;;75.83;33.37;;;8.40;99.90;;;;;;4972566;28;20619;-26
2021/12/17 10:47:14;;;;;;;75.83;33.33;;;8.40;99.90;;;;;;4975003;28;20214;-26
2021/12/17 10:49:55;;;;;;;71.50;31.60;;;8.40;99.90;;;;;;4973525;28;20278;-26
2021/12/17 10:52:34;;;;;;;75.40;33.17;;;8.50;99.90;;;;;;4986836;28;20237;-26
2021/12/17 10:55:14;;;;;;;72.83;32.43;;;8.50;99.90;;;;;;4972792;28;20241;-26
2021/12/17 10:57:44;;;;;;;82.13;33.63;;;8.50;99.90;;;;;;4969751;28;20571;-25
2021/12/17 11:00:16;;;;;;;75.47;32.07;;;8.50;99.90;;;;;;4979561;28;20249;-26
2021/12/17 11:02:52;;;;;;;76.03;32.87;;;8.50;99.90;;;;;;4990618;28;20506;-26
2021/12/17 11:05:23;;;;;;;75.60;32.40;;;8.50;99.90;;;;;;4988723;28;20210;-25
2021/12/17 11:07:52;;;;;;;71.57;32.17;;;8.60;99.90;;;;;;4976176;28;20215;-25
2021/12/17 11:10:35;;;;;;;71.30;32.23;;;8.60;99.90;;;;;;4970533;28;20201;-25
2021/12/17 11:13:15;;;;;;;77.93;32.77;;;8.60;99.90;;;;;;4971079;28;20261;-26
2021/12/17 11:15:43;;;;;;;77.07;32.63;;;8.70;99.90;;;;;;4975283;28;20205;-26
2021/12/17 11:18:13;;;;;;;81.00;33.13;;;8.70;99.90;;;;;;4990564;28;20210;-25
2021/12/17 11:20:40;;;;;;;72.93;31.90;;;8.70;99.90;;;;;;4982786;28;20194;-26
2021/12/17 11:23:12;;;;;;;75.07;33.30;;;8.70;99.90;;;;;;4970422;28;20438;-26
2021/12/17 11:25:45;;;;;;;77.67;32.80;;;8.70;99.90;;;;;;4972280;28;20207;-26
2021/12/17 11:28:12;;;;;;;79.67;34.57;;;8.70;99.90;;;;;;4990178;28;20206;-25
2021/12/17 11:30:47;;;;;;;76.73;34.10;;;8.80;99.90;;;;;;4990096;28;20586;-26
2021/12/17 11:33:15;;;;;;;88.63;35.47;;;8.80;99.90;;;;;;4975557;28;20766;-26
2021/12/17 11:35:44;;;;;;;85.17;33.73;;;8.80;99.90;;;;;;4970007;28;20219;-26
2021/12/17 11:38:20;;;;;;;79.67;34.07;;;8.80;99.90;;;;;;4970546;28;20203;-25
2021/12/17 11:40:55;;;;;;;78.17;33.00;;;8.90;99.90;;;;;;4969398;28;20225;-25
2021/12/17 11:43:51;;;;;;;90.63;34.50;;;8.90;99.90;;;;;;4970607;28;20199;-25
2021/12/17 11:46:30;;;;;;;80.50;33.90;;;8.90;99.90;;;;;;4971916;28;20261;-25
2021/12/17 11:49:03;;;;;;;89.57;34.40;;;9.00;99.90;;;;;;4974506;28;20696;-25
2021/12/17 11:51:36;;;;;;;84.13;35.00;;;9.00;99.90;;;;;;4989216;28;20734;-25
2021/12/17 11:54:29;;;;;;;76.87;32.77;;;9.00;99.90;;;;;;4985925;28;20755;-25
2021/12/17 11:57:09;;;;;;;85.97;33.30;;;9.10;99.90;;;;;;4975124;28;21023;-25
2021/12/17 11:59:39;;;;;;;80.50;33.53;;;9.20;99.90;;;;;;4969919;28;20610;-25
2021/12/17 12:02:22;;;;;;;84.17;35.07;;;9.20;99.90;;;;;;4970173;28;20199;-25
2021/12/17 12:04:57;;;;;;;89.10;35.30;;;9.20;99.90;;;;;;4969637;28;20636;-25
2021/12/17 12:07:26;;;;;;;85.80;35.80;;;9.20;99.90;;;;;;4970042;28;20229;-25
2021/12/17 12:10:07;;;;;;;84.70;34.53;;;9.30;99.90;;;;;;4967740;28;20202;-25
2021/12/17 12:12:35;;;;;;;96.23;35.63;;;9.30;99.90;;;;;;4970290;28;20265;-25
2021/12/17 12:15:19;;;;;;;88.67;34.50;;;9.30;99.90;;;;;;4981531;28;20214;-25
2021/12/17 12:18:12;;;;;;;78.73;31.80;;;9.40;99.90;;;;;;4988313;28;20579;-25
2021/12/17 12:20:46;;;;;;;86.27;34.17;;;9.40;99.90;;;;;;4989642;28;20590;-25
2021/12/17 12:23:31;;;;;;;89.47;35.63;;;9.40;99.90;;;;;;4982113;28;20674;-25
2021/12/17 12:26:08;;;;;;;84.77;34.67;;;9.50;99.90;;;;;;4968716;28;20202;-25
2021/12/17 12:29:02;;;;;;;89.13;35.13;;;9.50;99.90;;;;;;4988026;28;20727;-25
2021/12/17 12:31:37;;;;;;;78.27;34.43;;;9.50;99.90;;;;;;4987777;28;20329;-25
2021/12/17 12:34:15;;;;;;;96.27;35.90;;;9.60;99.90;;;;;;4987418;28;20246;-25
2021/12/17 12:37:10;;;;;;;87.27;34.23;;;9.60;99.90;;;;;;4988698;28;20236;-25
2021/12/17 12:39:43;;;;;;;95.33;38.00;;;9.60;99.90;;;;;;4984486;28;20659;-25
2021/12/17 12:42:21;;;;;;;102.03;38.27;;;9.60;99.90;;;;;;4969698;28;20674;-25
2021/12/17 12:44:48;;;;;;;100.27;39.93;;;9.70;99.90;;;;;;4976075;28;20221;-25
2021/12/17 12:47:23;;;;;;;91.57;36.93;;;9.70;99.90;;;;;;4988916;28;20607;-25
2021/12/17 12:50:01;;;;;;;107.63;39.83;;;9.70;99.90;;;;;;4988639;28;20221;-25
2021/12/17 12:52:32;;;;;;;97.33;39.40;;;9.70;99.90;;;;;;4987585;28;20642;-25
2021/12/17 12:55:41;;;;;;;107.13;40.80;;;9.80;99.90;;;;;;4973249;28;20213;-25
2021/12/17 12:58:15;;;;;;;108.40;39.87;;;9.80;99.90;;;;;;4979000;28;20207;-24
2021/12/17 13:00:43;;;;;;;102.00;39.47;;;9.80;99.90;;;;;;4968938;28;20601;-25
2021/12/17 13:03:22;;;;;;;104.77;38.53;;;9.80;99.90;;;;;;4983265;28;20205;-25
2021/12/17 13:05:50;;;;;;;105.33;39.10;;;9.80;99.90;;;;;;4968681;28;20692;-25
2021/12/17 13:08:23;;;;;;;92.40;36.67;;;9.80;99.90;;;;;;4968164;28;20202;-24
2021/12/17 13:10:59;;;;;;;107.50;38.10;;;9.90;99.90;;;;;;4966618;28;20593;-25
2021/12/17 13:13:36;;;;;;;94.17;37.53;;;9.90;99.90;;;;;;4983907;28;20202;-25
2021/12/17 13:16:20;;;;;;;96.50;37.93;;;10.00;99.90;;;;;;4969294;28;20701;-25
2021/12/17 13:21:46;;;;;;;94.17;36.70;;;10.00;99.90;;;;;;4969353;28;20696;-24
2021/12/17 13:24:25;;;;;;;98.93;37.20;;;10.10;99.90;;;;;;4970598;28;20561;-24
2021/12/17 13:27:02;;;;;;;93.80;36.20;;;10.10;99.90;;;;;;4976419;28;20202;-23
2021/12/17 13:29:38;;;;;;;99.80;37.33;;;10.10;99.90;;;;;;4969048;28;20199;-24
2021/12/17 13:32:10;;;;;;;87.80;33.63;;;10.10;99.90;;;;;;4969583;28;20302;-24
2021/12/17 13:34:46;;;;;;;93.03;35.17;;;10.10;99.90;;;;;;4984871;28;20237;-24
2021/12/17 13:37:24;;;;;;;92.90;35.60;;;10.20;99.90;;;;;;4975899;28;20586;-24
2021/12/17 13:40:07;;;;;;;90.97;35.13;;;10.20;99.90;;;;;;4968075;28;20206;-23
2021/12/17 13:42:37;;;;;;;89.90;33.53;;;10.30;99.90;;;;;;4976345;28;20424;-24
2021/12/17 13:45:07;;;;;;;80.27;33.97;;;10.30;99.90;;;;;;4983617;28;20209;-24
2021/12/17 13:47:46;;;;;;;78.47;32.70;;;10.30;99.90;;;;;;4983103;28;20853;-24
2021/12/17 13:50:19;;;;;;;83.53;32.67;;;10.30;99.90;;;;;;4968598;28;20789;-23
2021/12/17 13:53:02;;;;;;;83.27;32.93;;;10.30;99.90;;;;;;4968191;28;20231;-24
2021/12/17 13:55:36;;;;;;;79.30;30.63;;;10.40;99.90;;;;;;4980015;28;20222;-24
2021/12/17 13:58:16;;;;;;;85.43;31.87;;;10.40;99.90;;;;;;4982957;28;20460;-24
2021/12/17 14:00:46;;;;;;;85.23;32.00;;;10.50;99.90;;;;;;4968792;28;20218;-23
2021/12/17 14:03:19;;;;;;;83.77;31.63;;;10.50;99.90;;;;;;4984695;28;20687;-23
2021/12/17 14:06:07;;;;;;;80.47;32.03;;;10.50;99.90;;;;;;4981363;28;20202;-24
2021/12/17 14:08:40;;;;;;;72.33;29.63;;;10.50;99.90;;;;;;4987184;28;20201;-24
2021/12/17 14:11:33;;;;;;;72.73;30.33;;;10.50;99.90;;;;;;4971373;28;20585;-23
2021/12/17 14:14:33;;;;;;;68.03;29.63;;;10.50;99.90;;;;;;4972017;28;20207;-24
2021/12/17 14:17:03;;;;;;;77.43;30.37;;;10.50;99.90;;;;;;4986154;28;20222;-24
2021/12/17 14:19:38;;;;;;;78.87;31.63;;;10.50;99.90;;;;;;4981085;28;20549;-23
2021/12/17 14:22:32;;;;;;;71.43;29.33;;;10.60;99.90;;;;;;4972568;28;20229;-24
2021/12/17 14:24:59;;;;;;;74.03;29.73;;;10.60;99.90;;;;;;4981523;28;20206;-23
2021/12/17 14:27:46;;;;;;;75.37;29.70;;;10.60;99.90;;;;;;4981700;28;20633;-24
2021/12/17 14:30:13;;;;;;;69.27;28.77;;;10.60;99.90;;;;;;4991282;28;20511;-24
2021/12/17 14:32:49;;;;;;;63.57;27.27;;;10.60;99.90;;;;;;4989221;28;20673;-24
2021/12/17 14:35:40;;;;;;;61.97;27.27;;;10.60;99.90;;;;;;4971995;28;20512;-23
2021/12/17 14:38:10;;;;;;;64.60;27.17;;;10.70;99.90;;;;;;4974487;28;20214;-24
2021/12/17 14:40:46;;;;;;;68.23;28.10;;;10.70;99.90;;;;;;4984559;28;20700;-23
2021/12/17 14:43:30;;;;;;;55.97;25.63;;;10.70;99.90;;;;;;4989125;28;20268;-23
2021/12/17 14:46:12;;;;;;;63.27;28.00;;;10.70;99.90;;;;;;4971486;28;20625;-23
2021/12/17 14:49:04;;;;;;;57.27;26.30;;;10.70;99.90;;;;;;4971595;28;20203;-24
2021/12/17 15:02:53;;;;;;;54.50;25.70;;;10.80;99.90;;;;;;4982001;28;20580;-23
2021/12/17 15:05:26;;;;;;;52.27;25.97;;;10.80;99.90;;;;;;4970832;28;20274;-23
2021/12/17 15:07:55;;;;;;;54.80;26.57;;;10.80;99.90;;;;;;4982846;28;20290;-24
2021/12/17 15:10:24;;;;;;;56.37;27.77;;;10.80;99.90;;;;;;4986174;28;20325;-24
2021/12/17 15:12:57;;;;;;;57.30;27.10;;;10.80;99.90;;;;;;4971301;28;20285;-24
2021/12/17 15:15:30;;;;;;;48.70;25.97;;;10.90;99.90;;;;;;4970932;28;20211;-24
2021/12/17 15:18:00;;;;;;;53.47;27.30;;;10.90;99.90;;;;;;4988986;28;20312;-24
2021/12/17 15:20:30;;;;;;;54.50;27.13;;;10.90;99.90;;;;;;4974320;28;20214;-24
2021/12/17 15:23:03;;;;;;;52.53;27.33;;;10.90;99.90;;;;;;4974792;28;20243;-23
2021/12/17 15:25:32;;;;;;;53.50;26.30;;;10.90;99.90;;;;;;4969562;28;20226;-24
2021/12/17 15:28:00;;;;;;;51.10;26.50;;;10.90;99.90;;;;;;4976902;28;20632;-23
2021/12/17 15:30:32;;;;;;;55.00;27.63;;;10.90;99.90;;;;;;4981275;28;20671;-24
2021/12/17 15:33:00;;;;;;;56.00;28.30;;;10.90;99.90;;;;;;4975392;28;20206;-24
2021/12/17 15:35:28;;;;;;;53.40;26.87;;;10.90;99.90;;;;;;4983644;28;20249;-24
2021/12/17 15:38:00;;;;;;;52.00;27.23;;;10.90;99.90;;;;;;4969398;28;20808;-24
2021/12/17 15:40:30;;;;;;;54.70;26.77;;;10.90;99.90;;;;;;4970672;28;20217;-23
2021/12/17 15:43:02;;;;;;;54.80;27.50;;;10.90;99.90;;;;;;4970091;28;20199;-23
2021/12/17 15:45:37;;;;;;;51.63;26.93;;;10.90;99.90;;;;;;4968687;28;20796;-24
2021/12/17 15:48:13;;;;;;;49.30;26.17;;;11.00;99.90;;;;;;4971710;28;20217;-23
2021/12/17 15:50:59;;;;;;;53.10;26.97;;;11.00;99.90;;;;;;4971091;28;20207;-23